Time;durP1;ratioP1;P1;durP2;ratioP2;P2;SDS_P1;SDS_P2;PMS_P1;PMS_P2;Temp;Humidity;BMP_temperature;BMP_pressure;BME280_temperature;BME280_humidity;BME280_pressure;Samples;Min_cycle;Max_cycle;Signal;HPM_P1;HPM_P2
2022/03/25 00:00:34;;;;;;;42.10;29.75;;;;;;;6.48;nan;103003.50;5110960;28;20399;-58
2022/03/25 00:02:59;;;;;;;45.00;31.05;;;;;;;6.54;nan;103021.91;5112748;28;20429;-60
2022/03/25 00:05:25;;;;;;;42.03;29.65;;;;;;;6.57;nan;103019.34;5112783;28;20031;-58
2022/03/25 00:07:50;;;;;;;46.17;30.35;;;;;;;6.41;nan;102993.78;5112675;28;20123;-59
2022/03/25 00:10:15;;;;;;;49.92;31.73;;;;;;;6.49;nan;103018.34;5112789;28;20032;-58
2022/03/25 00:12:41;;;;;;;46.95;31.05;;;;;;;6.00;nan;102943.28;5112419;28;20034;-56
2022/03/25 00:15:06;;;;;;;45.42;32.45;;;;;;;6.40;nan;103010.31;5112548;28;20039;-58
2022/03/25 00:17:32;;;;;;;45.08;31.83;;;;;;;6.33;nan;103011.94;5112164;28;20050;-58
2022/03/25 00:19:57;;;;;;;46.55;31.45;;;;;;;5.91;nan;102937.88;5111587;28;20084;-59
2022/03/25 00:22:22;;;;;;;47.03;31.90;;;;;;;5.98;nan;102951.09;5112571;28;20103;-58
2022/03/25 00:24:48;;;;;;;47.35;32.92;;;;;;;5.90;nan;102937.00;5111509;28;20050;-58
2022/03/25 00:27:14;;;;;;;48.45;34.03;;;;;;;5.90;nan;102943.94;5112687;28;20031;-58
2022/03/25 00:29:39;;;;;;;50.38;33.47;;;;;;;6.29;nan;103025.81;5111823;28;20138;-59
2022/03/25 00:32:05;;;;;;;48.30;34.25;;;;;;;5.91;nan;102953.56;5112137;28;20063;-58
2022/03/25 00:34:30;;;;;;;53.42;35.28;;;;;;;5.83;nan;102934.19;5112089;28;20392;-58
2022/03/25 00:36:56;;;;;;;51.85;35.92;;;;;;;6.20;nan;103004.69;5110702;28;20036;-57
2022/03/25 00:39:21;;;;;;;51.75;35.28;;;;;;;5.79;nan;102938.47;5110875;28;20035;-58
2022/03/25 00:41:47;;;;;;;48.15;35.25;;;;;;;5.69;nan;102934.78;5116637;28;20032;-58
2022/03/25 00:44:13;;;;;;;53.95;37.55;;;;;;;6.07;nan;102997.47;5116682;28;20031;-58
2022/03/25 00:46:39;;;;;;;52.83;37.13;;;;;;;5.90;nan;102964.84;5115038;28;20097;-58
2022/03/25 00:49:05;;;;;;;51.33;36.47;;;;;;;5.74;nan;102942.75;5116699;28;20031;-58
2022/03/25 00:51:30;;;;;;;52.60;36.92;;;;;;;5.97;nan;102990.28;5116412;28;20028;-57
2022/03/25 00:53:55;;;;;;;54.85;36.53;;;;;;;5.91;nan;102983.19;5115238;28;20031;-58
2022/03/25 00:56:21;;;;;;;55.17;38.15;;;;;;;5.56;nan;102927.56;5116080;28;20036;-58
2022/03/25 00:58:47;;;;;;;56.83;38.40;;;;;;;5.94;nan;103019.88;5116216;28;20487;-59
2022/03/25 01:01:12;;;;;;;57.95;39.42;;;;;;;5.88;nan;102997.94;5116193;28;20036;-58
2022/03/25 01:03:38;;;;;;;55.47;39.13;;;;;;;5.89;nan;103011.06;5116304;28;20060;-58
2022/03/25 01:06:03;;;;;;;53.80;39.58;;;;;;;5.83;nan;103005.66;5114863;28;20057;-58
2022/03/25 01:08:29;;;;;;;57.17;38.92;;;;;;;5.60;nan;102972.94;5115857;28;20051;-59
2022/03/25 01:10:54;;;;;;;59.33;40.97;;;;;;;5.71;nan;103014.94;5116032;28;20031;-58
2022/03/25 01:13:20;;;;;;;59.75;41.40;;;;;;;5.29;nan;102944.34;5114694;28;20028;-58
2022/03/25 01:15:45;;;;;;;58.47;40.67;;;;;;;5.24;nan;102944.25;5115945;28;20158;-58
2022/03/25 01:18:10;;;;;;;61.30;41.70;;;;;;;5.54;nan;102998.91;5115459;28;20056;-59
2022/03/25 01:20:36;;;;;;;56.80;40.88;;;;;;;5.60;nan;103006.88;5116079;28;20042;-58
2022/03/25 01:23:05;;;;;;;61.78;40.45;;;;;;;5.22;nan;102938.13;5115772;28;20032;-59
2022/03/25 01:25:34;;;;;;;60.83;42.42;;;;;;;5.57;nan;103005.06;5115672;28;20429;-58
2022/03/25 01:27:59;;;;;;;60.53;42.97;;;;;;;5.24;nan;102945.97;5115481;28;20043;-57
2022/03/25 01:30:25;;;;;;;63.65;44.45;;;;;;;5.28;nan;102979.16;5115637;28;20392;-58
2022/03/25 01:32:50;;;;;;;64.93;44.03;;;;;;;5.44;nan;103023.03;5115747;28;20527;-58
2022/03/25 01:35:15;;;;;;;63.50;43.58;;;;;;;5.36;nan;103007.19;5115831;28;20048;-58
2022/03/25 01:37:41;;;;;;;67.90;45.58;;;;;;;5.30;nan;102995.72;5115635;28;20036;-56
2022/03/25 01:40:09;;;;;;;66.50;45.03;;;;;;;5.29;nan;103001.78;5115404;28;20028;-57
2022/03/25 01:42:36;;;;;;;65.90;45.15;;;;;;;5.05;nan;102953.38;5114124;28;20042;-58
2022/03/25 01:45:03;;;;;;;67.75;46.10;;;;;;;5.28;nan;103000.03;5115270;28;20119;-57
2022/03/25 01:47:30;;;;;;;67.07;45.70;;;;;;;5.28;nan;102989.59;5096817;28;20398;-58
2022/03/25 01:49:57;;;;;;;72.28;47.08;;;;;;;5.26;nan;102991.25;5115011;28;20097;-58
2022/03/25 01:52:22;;;;;;;71.68;47.78;;;;;;;5.17;nan;102984.09;5114330;28;20023;-58
2022/03/25 01:54:48;;;;;;;66.05;47.53;;;;;;;5.17;nan;102991.06;5112673;28;20511;-57
2022/03/25 01:57:13;;;;;;;79.70;49.95;;;;;;;5.06;nan;102991.69;5112748;28;20034;-58
2022/03/25 01:59:39;;;;;;;71.57;48.33;;;;;;;4.72;nan;102931.69;5114528;28;20043;-59
2022/03/25 02:02:05;;;;;;;70.07;48.58;;;;;;;4.99;nan;102992.38;5113994;28;20122;-59
2022/03/25 02:04:31;;;;;;;82.50;50.20;;;;;;;4.61;nan;102922.72;5114902;28;20458;-60
2022/03/25 02:06:56;;;;;;;71.60;48.58;;;;;;;4.97;nan;102988.84;5113499;28;20127;-58
2022/03/25 02:09:22;;;;;;;74.32;50.63;;;;;;;4.94;nan;102983.56;5114721;28;20032;-58
2022/03/25 02:11:47;;;;;;;82.53;53.03;;;;;;;4.91;nan;103006.06;5113544;28;20123;-57
2022/03/25 02:14:13;;;;;;;79.05;52.35;;;;;;;4.51;nan;102921.59;5114750;28;20030;-56
2022/03/25 02:16:41;;;;;;;82.63;52.20;;;;;;;4.57;nan;102943.47;5114567;28;20054;-61
2022/03/25 02:19:08;;;;;;;77.95;52.63;;;;;;;4.44;nan;102910.97;5114457;28;20489;-58
2022/03/25 02:21:34;;;;;;;87.03;53.63;;;;;;;4.76;nan;102982.22;5114657;28;20061;-58
2022/03/25 02:24:01;;;;;;;84.60;53.55;;;;;;;4.28;nan;102914.03;5114681;28;20402;-56
2022/03/25 02:26:27;;;;;;;79.95;53.63;;;;;;;4.42;nan;102933.50;5114371;27;20050;-57
2022/03/25 02:28:53;;;;;;;82.45;54.20;;;;;;;4.61;nan;102972.28;5114543;28;20100;-59
2022/03/25 02:31:19;;;;;;;86.55;56.53;;;;;;;4.65;nan;102979.31;5114555;28;20036;-58
2022/03/25 02:33:44;;;;;;;83.80;53.85;;;;;;;4.64;nan;102980.16;5114624;28;20395;-58
2022/03/25 02:36:09;;;;;;;84.22;55.45;;;;;;;4.30;nan;102933.19;5114498;28;20032;-58
2022/03/25 02:38:35;;;;;;;86.47;56.00;;;;;;;4.12;nan;102904.91;5114239;28;20080;-59
2022/03/25 02:41:02;;;;;;;86.43;55.95;;;;;;;4.41;nan;102976.06;5113977;28;20119;-59
2022/03/25 02:43:27;;;;;;;88.25;56.92;;;;;;;4.39;nan;102982.97;5114274;28;20019;-60
2022/03/25 02:45:53;;;;;;;84.53;56.78;;;;;;;4.25;nan;102964.38;5114114;28;20468;-58
2022/03/25 02:48:18;;;;;;;93.00;59.22;;;;;;;4.17;nan;102960.69;5114131;28;20042;-57
2022/03/25 02:50:46;;;;;;;98.00;62.38;;;;;;;4.04;nan;102939.41;5114011;28;20384;-59
2022/03/25 02:53:11;;;;;;;96.30;58.17;;;;;;;3.68;nan;102895.88;5114004;28;20071;-59
2022/03/25 02:55:37;;;;;;;94.95;60.10;;;;;;;3.71;nan;102897.66;5113930;28;20122;-58
2022/03/25 02:58:02;;;;;;;96.45;60.97;;;;;;;4.02;nan;102959.34;5113883;27;20046;-58
2022/03/25 03:00:28;;;;;;;95.72;60.90;;;;;;;3.60;nan;102893.88;5114039;28;20129;-59
2022/03/25 03:02:55;;;;;;;104.05;65.70;;;;;;;4.05;nan;102975.06;5112772;28;20115;-58
2022/03/25 03:05:20;;;;;;;107.00;66.18;;;;;;;4.02;nan;102955.03;5112707;28;20566;-58
2022/03/25 03:07:46;;;;;;;113.07;67.65;;;;;;;4.16;nan;102969.31;5113675;28;20118;-59
2022/03/25 03:10:12;;;;;;;104.43;64.85;;;;;;;4.17;nan;102965.88;5112382;28;20446;-59
2022/03/25 03:12:38;;;;;;;110.57;67.85;;;;;;;4.16;nan;102966.72;5112570;28;20024;-58
2022/03/25 03:15:06;;;;;;;106.53;67.18;;;;;;;4.11;nan;102964.81;5112411;28;20040;-58
2022/03/25 03:17:31;;;;;;;110.88;68.95;;;;;;;3.98;nan;102951.44;5113538;28;20047;-56
2022/03/25 03:19:57;;;;;;;117.03;72.28;;;;;;;4.06;nan;102967.28;5113632;28;20453;-58
2022/03/25 03:22:22;;;;;;;109.05;72.07;;;;;;;3.67;nan;102903.66;5112254;28;20035;-56
2022/03/25 03:24:48;;;;;;;111.50;67.25;;;;;;;3.97;nan;102965.31;5113283;28;20126;-58
2022/03/25 03:27:13;;;;;;;120.38;71.60;;;;;;;3.95;nan;102960.91;5113556;27;20046;-58
2022/03/25 03:29:39;;;;;;;118.80;71.07;;;;;;;3.47;nan;102884.88;5111717;28;20088;-56
2022/03/25 03:32:06;;;;;;;117.38;72.32;;;;;;;3.50;nan;102887.56;5112316;28;20031;-57
2022/03/25 03:34:32;;;;;;;118.75;71.28;;;;;;;3.88;nan;102952.00;5112047;28;20039;-58
2022/03/25 03:36:58;;;;;;;118.72;74.05;;;;;;;3.75;nan;102934.28;5112111;28;20494;-57
2022/03/25 03:39:23;;;;;;;124.88;73.95;;;;;;;3.89;nan;102955.50;5112675;28;20078;-54
2022/03/25 03:41:48;;;;;;;121.22;74.38;;;;;;;3.57;nan;102892.09;5112808;28;20494;-58
2022/03/25 03:44:14;;;;;;;125.03;76.90;;;;;;;3.93;nan;102957.38;5111954;28;20540;-58
2022/03/25 03:46:39;;;;;;;125.03;75.18;;;;;;;3.91;nan;102956.47;5111293;28;20044;-58
2022/03/25 03:49:05;;;;;;;113.43;72.10;;;;;;;3.77;nan;102935.22;5111183;28;20031;-58
2022/03/25 03:51:31;;;;;;;124.25;73.43;;;;;;;3.53;nan;102892.84;5112294;28;20376;-56
2022/03/25 03:53:57;;;;;;;122.07;72.40;;;;;;;3.57;nan;102919.84;5112839;28;20484;-55
2022/03/25 03:56:22;;;;;;;126.53;76.68;;;;;;;3.81;nan;102952.69;5112855;28;20118;-56
2022/03/25 03:58:48;;;;;;;124.38;76.15;;;;;;;3.86;nan;102952.81;5094634;28;20024;-58
2022/03/25 04:01:13;;;;;;;129.02;73.88;;;;;;;3.87;nan;102950.28;5112826;28;20472;-57
2022/03/25 04:03:39;;;;;;;128.60;77.13;;;;;;;3.84;nan;102962.31;5111595;28;20139;-58
2022/03/25 04:06:05;;;;;;;126.00;75.45;;;;;;;3.54;nan;102899.81;5111551;28;20460;-58
2022/03/25 04:08:31;;;;;;;129.77;77.15;;;;;;;3.80;nan;102960.47;5094456;28;20024;-58
2022/03/25 04:10:56;;;;;;;136.55;82.93;;;;;;;3.41;nan;102893.34;5111571;28;20096;-57
2022/03/25 04:13:21;;;;;;;129.18;80.13;;;;;;;3.76;nan;102954.31;5111273;28;20028;-56
2022/03/25 04:15:47;;;;;;;131.07;74.63;;;;;;;3.67;nan;102943.63;5112440;28;20038;-58
2022/03/25 04:18:12;;;;;;;140.75;80.25;;;;;;;3.28;nan;102885.16;5112818;28;20124;-56
2022/03/25 04:20:38;;;;;;;141.10;81.63;;;;;;;3.75;nan;102967.25;5112638;28;20035;-56
2022/03/25 04:23:03;;;;;;;138.73;80.43;;;;;;;3.18;nan;102870.97;5111235;28;20476;-58
2022/03/25 04:25:28;;;;;;;134.15;80.15;;;;;;;3.41;nan;102911.56;5112767;28;20104;-58
2022/03/25 04:27:55;;;;;;;137.23;81.53;;;;;;;3.40;nan;102911.53;5112461;28;20035;-54
2022/03/25 04:30:25;;;;;;;138.02;81.72;;;;;;;3.36;nan;102907.97;5112432;28;20661;-57
2022/03/25 04:32:51;;;;;;;140.95;81.13;;;;;;;3.65;nan;102960.88;5112660;28;20035;-58
2022/03/25 04:35:17;;;;;;;133.13;79.63;;;;;;;3.31;nan;102906.06;5112348;28;20035;-58
2022/03/25 04:37:42;;;;;;;136.95;80.95;;;;;;;3.55;nan;102968.41;5112349;28;20032;-57
2022/03/25 04:40:09;;;;;;;134.75;79.22;;;;;;;3.40;nan;102942.78;5111262;28;20047;-58
2022/03/25 04:42:34;;;;;;;139.13;80.28;;;;;;;3.15;nan;102909.91;5111107;28;20039;-53
2022/03/25 04:45:00;;;;;;;138.13;79.38;;;;;;;3.48;nan;102964.72;5111181;28;20381;-58
2022/03/25 04:47:25;;;;;;;140.90;82.57;;;;;;;3.39;nan;102960.13;5112331;28;20039;-54
2022/03/25 04:49:50;;;;;;;147.27;81.70;;;;;;;3.38;nan;102960.09;5112360;28;20085;-56
2022/03/25 04:52:16;;;;;;;135.48;80.65;;;;;;;3.35;nan;102960.00;5112525;28;20036;-55
2022/03/25 04:54:41;;;;;;;136.55;79.57;;;;;;;3.32;nan;102967.69;5112412;28;20058;-57
2022/03/25 04:57:06;;;;;;;149.00;86.40;;;;;;;3.33;nan;102970.34;5112452;28;20077;-55
2022/03/25 04:59:32;;;;;;;147.00;85.10;;;;;;;3.20;nan;102950.00;5112412;28;20032;-56
2022/03/25 05:01:57;;;;;;;143.30;83.10;;;;;;;3.32;nan;102955.56;5111104;28;20035;-57
2022/03/25 05:04:22;;;;;;;145.88;82.68;;;;;;;3.36;nan;102973.03;5112146;28;20039;-55
2022/03/25 05:06:48;;;;;;;157.63;87.63;;;;;;;3.06;nan;102921.78;5111949;28;20100;-56
2022/03/25 05:09:13;;;;;;;147.07;83.72;;;;;;;3.24;nan;102977.00;5112096;28;20196;-58
2022/03/25 05:11:39;;;;;;;153.80;83.85;;;;;;;2.91;nan;102926.47;5111845;28;20414;-55
2022/03/25 05:14:05;;;;;;;148.00;82.43;;;;;;;3.12;nan;102972.28;5112253;28;20031;-54
2022/03/25 05:16:30;;;;;;;153.60;82.60;;;;;;;2.81;nan;102933.97;5111990;28;20036;-56
2022/03/25 05:18:55;;;;;;;150.00;82.43;;;;;;;2.77;nan;102934.72;5111838;28;20104;-55
2022/03/25 05:21:21;;;;;;;152.48;81.03;;;;;;;3.00;nan;102982.31;5110752;28;20043;-58
2022/03/25 05:23:46;;;;;;;154.82;82.55;;;;;;;2.67;nan;102935.25;5112054;28;20039;-57
2022/03/25 05:26:12;;;;;;;144.75;80.63;;;;;;;2.91;nan;102983.72;5111872;28;20396;-57
2022/03/25 05:28:37;;;;;;;154.73;85.10;;;;;;;2.83;nan;102979.13;5115619;28;20077;-57
2022/03/25 05:31:03;;;;;;;151.30;84.10;;;;;;;2.83;nan;102984.31;5115724;28;20040;-56
2022/03/25 05:33:28;;;;;;;154.43;81.63;;;;;;;2.77;nan;102988.47;5114387;28;20036;-58
2022/03/25 05:35:54;;;;;;;152.10;81.03;;;;;;;2.39;nan;102926.50;5115589;27;20027;-57
2022/03/25 05:38:19;;;;;;;157.45;83.30;;;;;;;2.73;nan;102990.06;5115977;28;20143;-57
2022/03/25 05:40:45;;;;;;;158.63;83.03;;;;;;;2.71;nan;102996.94;5115686;28;20523;-59
2022/03/25 05:43:10;;;;;;;150.13;80.65;;;;;;;2.71;nan;102996.94;5113892;28;20027;-58
2022/03/25 05:45:36;;;;;;;152.98;85.53;;;;;;;2.71;nan;102989.16;5115645;28;20051;-58
2022/03/25 05:48:01;;;;;;;160.32;84.90;;;;;;;2.64;nan;102973.25;5115249;27;20184;-57
2022/03/25 05:50:27;;;;;;;165.20;86.18;;;;;;;2.73;nan;103002.19;5115065;28;20498;-57
2022/03/25 05:52:52;;;;;;;157.32;82.80;;;;;;;2.67;nan;102987.25;5114929;28;20122;-56
2022/03/25 05:55:18;;;;;;;155.23;81.38;;;;;;;2.04;nan;102874.19;5115245;28;20472;-58
2022/03/25 05:57:43;;;;;;;164.98;85.60;;;;;;;2.41;nan;102920.50;5115176;28;20119;-58
2022/03/25 06:00:09;;;;;;;150.93;82.68;;;;;;;2.62;nan;102965.44;5114802;28;20035;-59
2022/03/25 06:02:35;;;;;;;154.90;83.55;;;;;;;2.55;nan;102941.75;5113735;28;20031;-58
2022/03/25 06:05:00;;;;;;;159.35;84.35;;;;;;;2.88;nan;102987.09;5113795;28;20373;-57
2022/03/25 06:07:26;;;;;;;159.13;85.60;;;;;;;2.93;nan;102988.13;5114652;28;20040;-58
2022/03/25 06:09:52;;;;;;;158.98;85.63;;;;;;;2.98;nan;103003.91;5113976;28;20067;-57
2022/03/25 06:12:17;;;;;;;169.93;85.65;;;;;;;3.04;nan;103010.16;5113871;28;20123;-58
2022/03/25 06:14:42;;;;;;;153.75;85.50;;;;;;;3.08;nan;102996.44;5113466;28;20063;-58
2022/03/25 06:17:08;;;;;;;150.55;85.22;;;;;;;3.23;nan;103002.13;5114571;28;20391;-57
2022/03/25 06:19:33;;;;;;;166.82;89.00;;;;;;;3.07;nan;102955.63;5114496;28;20056;-57
2022/03/25 06:21:59;;;;;;;155.57;85.25;;;;;;;3.45;nan;103015.81;5114583;28;20436;-59
2022/03/25 06:24:24;;;;;;;168.82;90.40;;;;;;;3.52;nan;103000.44;5114523;28;20403;-57
2022/03/25 06:26:52;;;;;;;171.50;89.63;;;;;;;3.43;nan;102966.31;5113226;28;20043;-55
2022/03/25 06:29:18;;;;;;;168.90;90.82;;;;;;;3.79;nan;103009.09;5113349;28;20085;-56
2022/03/25 06:31:43;;;;;;;174.75;91.80;;;;;;;3.83;nan;102997.91;5114238;28;20036;-57
2022/03/25 06:34:09;;;;;;;159.75;90.10;;;;;;;4.07;nan;103017.69;5114510;28;20114;-57
2022/03/25 06:36:34;;;;;;;163.63;91.35;;;;;;;4.22;nan;103010.31;5112488;28;20080;-58
2022/03/25 06:38:59;;;;;;;175.15;92.57;;;;;;;4.24;nan;102966.91;5114502;28;20032;-57
2022/03/25 06:41:25;;;;;;;155.90;88.88;;;;;;;4.72;nan;103007.34;5113220;28;20039;-58
2022/03/25 06:43:50;;;;;;;153.40;91.97;;;;;;;4.83;nan;102982.41;5114311;28;20036;-59
2022/03/25 06:46:17;;;;;;;137.65;85.78;;;;;;;5.24;nan;103019.06;5113581;28;20038;-55
2022/03/25 06:48:43;;;;;;;131.15;85.60;;;;;;;5.38;nan;103021.16;5112835;28;20031;-58
2022/03/25 06:51:09;;;;;;;131.88;84.55;;;;;;;5.57;nan;103027.72;5114072;28;20038;-59
2022/03/25 06:53:35;;;;;;;132.60;85.00;;;;;;;5.62;nan;103013.00;5114072;28;20040;-56
2022/03/25 06:56:01;;;;;;;125.72;81.47;;;;;;;5.68;nan;103019.28;5114309;28;20051;-55
2022/03/25 06:58:27;;;;;;;124.35;82.03;;;;;;;5.84;nan;103030.06;5113705;28;20060;-55
2022/03/25 07:00:53;;;;;;;125.43;84.93;;;;;;;5.93;nan;103039.00;5113745;28;20051;-57
2022/03/25 07:03:18;;;;;;;116.45;79.75;;;;;;;6.10;nan;103028.91;5111597;28;20484;-59
2022/03/25 07:05:44;;;;;;;115.88;78.78;;;;;;;6.29;nan;103043.22;5113202;28;20036;-56
2022/03/25 07:08:10;;;;;;;114.55;78.50;;;;;;;6.54;nan;103050.69;5113391;28;20043;-58
2022/03/25 07:10:36;;;;;;;116.97;78.10;;;;;;;6.90;nan;103063.59;5112320;28;20035;-56
2022/03/25 07:13:02;;;;;;;105.68;75.60;;;;;;;7.08;nan;103077.91;5112402;28;20027;-58
2022/03/25 07:15:29;;;;;;;107.03;74.78;;;;;;;6.94;nan;103002.59;5112520;28;20031;-58
2022/03/25 07:17:54;;;;;;;104.18;72.47;;;;;;;7.57;nan;103066.47;5112326;28;20047;-57
2022/03/25 07:20:21;;;;;;;98.40;71.45;;;;;;;7.73;nan;103078.09;5113028;28;20111;-58
2022/03/25 07:22:48;;;;;;;98.78;70.32;;;;;;;7.55;nan;103010.56;5095616;28;20399;-58
2022/03/25 07:25:15;;;;;;;93.82;70.20;;;;;;;8.13;nan;103080.41;5113060;28;20036;-58
2022/03/25 07:27:41;;;;;;;92.38;65.75;;;;;;;8.23;nan;103100.63;5112151;28;20118;-58
2022/03/25 07:30:08;;;;;;;86.72;64.97;;;;;;;8.56;nan;103094.97;5111237;28;20032;-58
2022/03/25 07:32:33;;;;;;;87.45;63.38;;;;;;;8.87;nan;103098.81;5112885;28;20483;-59
2022/03/25 07:34:59;;;;;;;82.88;64.57;;;;;;;8.82;nan;103050.59;5113298;28;20036;-59
2022/03/25 07:37:24;;;;;;;87.97;66.50;;;;;;;9.28;nan;103113.22;5112017;28;20046;-59
2022/03/25 07:39:50;;;;;;;83.43;63.60;;;;;;;9.74;nan;103110.97;5111969;28;20403;-56
2022/03/25 07:42:15;;;;;;;81.35;62.55;;;;;;;9.98;nan;103114.63;5113031;28;20429;-58
2022/03/25 07:44:41;;;;;;;83.40;61.17;;;;;;;10.32;nan;103099.94;5111543;28;20081;-58
2022/03/25 07:47:07;;;;;;;82.00;63.72;;;;;;;10.93;nan;103129.13;5112719;28;20602;-59
2022/03/25 07:49:34;;;;;;;78.32;61.50;;;;;;;11.27;nan;103141.47;5112224;28;20032;-59
2022/03/25 07:52:00;;;;;;;78.38;61.88;;;;;;;11.19;nan;103072.06;5094999;28;20031;-59
2022/03/25 07:54:25;;;;;;;73.43;58.92;;;;;;;11.74;nan;103144.16;5112815;28;20039;-59
2022/03/25 07:56:51;;;;;;;74.05;59.65;;;;;;;11.52;nan;103085.25;5112923;28;20039;-59
2022/03/25 07:59:16;;;;;;;73.13;56.78;;;;;;;11.87;nan;103140.66;5111453;28;20063;-59
2022/03/25 08:01:41;;;;;;;74.50;59.25;;;;;;;12.07;nan;103124.78;5111378;28;20118;-59
2022/03/25 08:04:07;;;;;;;73.47;58.17;;;;;;;12.43;nan;103138.72;5112550;28;20036;-59
2022/03/25 08:06:32;;;;;;;70.35;56.17;;;;;;;12.30;nan;103163.44;5111393;28;20097;-59
2022/03/25 08:08:59;;;;;;;68.03;54.67;;;;;;;12.39;nan;103163.41;5112546;28;20024;-59
2022/03/25 08:11:24;;;;;;;72.88;56.80;;;;;;;12.53;nan;103163.34;5112410;28;20035;-59
2022/03/25 08:13:50;;;;;;;74.22;57.92;;;;;;;12.63;nan;103117.53;5111230;28;20062;-60
2022/03/25 08:16:16;;;;;;;69.72;55.60;;;;;;;12.96;nan;103186.06;5111030;28;20028;-61
2022/03/25 08:18:43;;;;;;;68.68;55.60;;;;;;;12.98;nan;103131.44;5112343;28;20500;-58
2022/03/25 08:21:08;;;;;;;67.78;54.28;;;;;;;13.50;nan;103178.72;5112244;28;20067;-58
2022/03/25 08:29:02;;;;;;;65.05;53.72;;;;;;;13.58;nan;103183.94;5111454;28;20046;-52
2022/03/25 08:31:30;;;;;;;71.50;54.80;;;;;;;13.45;nan;103154.06;5111182;28;20023;-55
2022/03/25 08:33:55;;;;;;;63.42;51.30;;;;;;;13.99;nan;103193.28;5112301;28;20046;-54
2022/03/25 08:36:21;;;;;;;65.10;52.80;;;;;;;14.26;nan;103183.31;5112280;28;20032;-54
2022/03/25 08:38:46;;;;;;;62.50;52.20;;;;;;;14.22;nan;103115.34;5112536;28;20167;-57
2022/03/25 08:41:15;;;;;;;63.58;50.85;;;;;;;15.30;nan;103197.03;5112315;28;20434;-52
2022/03/25 08:43:41;;;;;;;66.20;50.30;;;;;;;15.82;nan;103199.81;5112224;28;20148;-58
2022/03/25 08:46:09;;;;;;;62.33;49.38;;;;;;;15.82;nan;103162.63;5112311;28;20056;-56
2022/03/25 08:48:35;;;;;;;58.63;48.15;;;;;;;16.12;nan;103216.09;5112402;28;20441;-56
2022/03/25 08:51:01;;;;;;;55.97;49.17;;;;;;;16.14;nan;103213.41;5111035;28;20036;-57
2022/03/25 08:53:26;;;;;;;58.13;49.38;;;;;;;16.38;nan;103204.97;5112412;28;20032;-57
2022/03/25 08:55:52;;;;;;;56.78;49.42;;;;;;;16.72;nan;103160.84;5112308;28;20072;-58
2022/03/25 08:58:17;;;;;;;56.63;48.38;;;;;;;16.93;nan;103175.47;5112140;28;20499;-56
2022/03/25 09:00:43;;;;;;;53.30;46.13;;;;;;;17.26;nan;103169.41;5114385;28;20027;-55
2022/03/25 09:03:09;;;;;;;53.63;45.67;;;;;;;17.72;nan;103209.16;5116483;28;20035;-54
2022/03/25 09:05:34;;;;;;;55.15;46.25;;;;;;;17.52;nan;103218.50;5098251;28;20395;-57
2022/03/25 09:07:59;;;;;;;54.22;45.25;;;;;;;17.48;nan;103222.16;5115970;28;20036;-56
2022/03/25 09:10:25;;;;;;;53.85;45.28;;;;;;;17.12;nan;103214.09;5114845;28;20257;-62
2022/03/25 09:12:51;;;;;;;52.53;44.92;;;;;;;16.88;nan;103177.38;5115730;28;20047;-61
2022/03/25 09:15:16;;;;;;;52.45;44.17;;;;;;;16.96;nan;103154.13;5115977;28;20036;-61
2022/03/25 09:17:44;;;;;;;51.20;43.88;;;;;;;17.47;nan;103231.06;5115901;28;20044;-61
2022/03/25 09:20:11;;;;;;;54.72;44.25;;;;;;;17.42;nan;103220.53;5115605;28;20467;-61
2022/03/25 09:22:36;;;;;;;52.38;44.28;;;;;;;17.51;nan;103238.06;5113529;28;20074;-60
2022/03/25 09:25:03;;;;;;;54.58;44.20;;;;;;;17.53;nan;103237.13;5113975;28;20059;-60
2022/03/25 09:27:28;;;;;;;51.92;43.97;;;;;;;17.12;nan;103222.09;5114959;28;20498;-62
2022/03/25 09:29:54;;;;;;;47.17;40.78;;;;;;;16.87;nan;103181.81;5115026;28;20122;-61
2022/03/25 09:32:19;;;;;;;51.45;42.85;;;;;;;18.00;nan;103217.34;5114824;28;20036;-60
2022/03/25 09:37:29;;;;;;;51.03;40.92;;;;;;;17.66;nan;103214.63;5115441;28;20062;-60
2022/03/25 09:39:54;;;;;;;52.20;41.78;;;;;;;18.00;nan;103212.00;5114059;28;20515;-60
2022/03/25 09:42:20;;;;;;;45.35;39.45;;;;;;;18.37;nan;103215.44;5115468;28;20092;-61
2022/03/25 09:44:46;;;;;;;53.40;42.30;;;;;;;18.84;nan;103200.78;5115421;28;20032;-61
2022/03/25 09:47:14;;;;;;;47.95;41.55;;;;;;;19.08;nan;103218.75;5113872;28;20047;-60
2022/03/25 09:49:40;;;;;;;49.35;41.08;;;;;;;18.71;nan;103164.69;5115306;28;20032;-61
2022/03/25 09:52:06;;;;;;;49.67;42.25;;;;;;;18.42;nan;103217.97;5096916;28;20028;-62
2022/03/25 09:54:32;;;;;;;45.03;38.80;;;;;;;18.91;nan;103218.34;5115076;28;20023;-61
2022/03/25 09:56:57;;;;;;;50.28;41.33;;;;;;;18.65;nan;103210.22;5114211;28;20039;-61
2022/03/25 09:59:23;;;;;;;50.63;40.03;;;;;;;18.59;nan;103220.22;5115244;28;20028;-61
2022/03/25 10:01:48;;;;;;;45.97;39.15;;;;;;;18.98;nan;103216.38;5115157;28;20039;-61
2022/03/25 10:04:39;;;;;;;48.42;37.38;;;;;;;19.81;nan;103227.13;5113596;28;20038;-60
2022/03/25 10:07:23;;;;;;;42.08;35.67;;;;;;;19.94;nan;103224.91;5114795;28;20027;-60
2022/03/25 10:10:05;;;;;;;42.97;35.88;;;;;;;20.13;nan;103226.91;5114936;28;20039;-60
2022/03/25 10:12:31;;;;;;;41.42;31.35;;;;;;;19.87;nan;103221.59;5113885;27;20035;-60
2022/03/25 10:15:12;;;;;;;40.42;32.63;;;;;;;19.95;nan;103224.88;5114893;28;20387;-60
2022/03/25 10:17:54;;;;;;;41.20;31.02;;;;;;;19.44;nan;103157.13;5114766;28;20032;-62
2022/03/25 10:20:24;;;;;;;37.10;30.27;;;;;;;19.98;nan;103223.88;5114779;28;20082;-63
2022/03/25 10:23:12;;;;;;;38.78;29.83;;;;;;;19.86;nan;103217.16;5113477;28;20066;-62
2022/03/25 10:25:48;;;;;;;36.63;29.38;;;;;;;19.76;nan;103205.00;5114628;28;20040;-60
2022/03/25 10:28:30;;;;;;;36.20;28.83;;;;;;;19.82;nan;103211.97;5113356;28;20036;-60
2022/03/25 10:30:59;;;;;;;40.40;28.83;;;;;;;20.11;nan;103220.72;5114464;28;20024;-60
2022/03/25 10:33:32;;;;;;;41.28;29.50;;;;;;;20.72;nan;103187.31;5113226;28;20027;-61
2022/03/25 10:36:07;;;;;;;38.10;29.45;;;;;;;20.79;nan;103209.38;5112705;28;20024;-60
2022/03/25 10:38:43;;;;;;;39.13;29.05;;;;;;;20.73;nan;103205.13;5113311;28;20049;-62
2022/03/25 10:41:10;;;;;;;36.63;29.30;;;;;;;20.85;nan;103197.56;5113326;28;20120;-60
2022/03/25 10:44:03;;;;;;;36.17;28.80;;;;;;;20.95;nan;103201.63;5112866;28;20480;-61
2022/03/25 10:46:34;;;;;;;35.53;29.35;;;;;;;20.58;nan;103200.34;5113061;28;20149;-59
2022/03/25 10:49:01;;;;;;;38.53;29.33;;;;;;;20.68;nan;103156.25;5112576;28;20966;-61
2022/03/25 10:51:27;;;;;;;36.65;27.98;;;;;;;20.23;nan;103187.31;5111569;28;20384;-61
2022/03/25 10:53:56;;;;;;;34.03;26.63;;;;;;;20.49;nan;103144.47;5112056;28;20356;-61
2022/03/25 10:56:22;;;;;;;38.63;27.95;;;;;;;21.19;nan;103188.19;5112486;28;20492;-62
2022/03/25 10:58:52;;;;;;;34.15;26.38;;;;;;;21.31;nan;103157.34;5112260;28;20036;-60
2022/03/25 11:01:17;;;;;;;30.77;25.90;;;;;;;21.61;nan;103198.09;5111478;28;20024;-61
2022/03/25 11:03:43;;;;;;;31.65;24.98;;;;;;;21.52;nan;103195.78;5113038;28;20032;-61
2022/03/25 11:06:09;;;;;;;37.83;26.63;;;;;;;20.76;nan;103196.97;5094535;28;20097;-62
2022/03/25 11:08:35;;;;;;;32.50;24.50;;;;;;;20.86;nan;103137.72;5111934;28;20028;-63
2022/03/25 11:11:01;;;;;;;33.47;26.40;;;;;;;21.18;nan;103132.88;5112587;28;20039;-61
2022/03/25 11:13:26;;;;;;;34.47;28.23;;;;;;;21.85;nan;103168.47;5094178;28;20134;-63
2022/03/25 11:15:54;;;;;;;33.30;27.17;;;;;;;21.58;nan;103137.47;5111198;28;20046;-62
2022/03/25 11:18:20;;;;;;;34.17;27.17;;;;;;;22.09;nan;103187.16;5112654;28;20055;-61
2022/03/25 11:20:45;;;;;;;34.15;27.40;;;;;;;22.31;nan;103186.13;5112449;28;20054;-63
2022/03/25 11:23:16;;;;;;;34.58;27.52;;;;;;;21.97;nan;103185.00;5110894;28;20031;-60
2022/03/25 11:25:45;;;;;;;35.67;28.27;;;;;;;22.55;nan;103173.41;5111633;28;20032;-64
2022/03/25 11:28:16;;;;;;;32.45;27.92;;;;;;;22.00;nan;103124.06;5110338;28;20494;-63
2022/03/25 11:30:41;;;;;;;34.95;27.25;;;;;;;23.10;nan;103179.78;5110819;28;20038;-61